Time;durP1;ratioP1;P1;durP2;ratioP2;P2;SDS_P1;SDS_P2;PMS_P1;PMS_P2;Temp;Humidity;BMP_temperature;BMP_pressure;BME280_temperature;BME280_humidity;BME280_pressure;Samples;Min_cycle;Max_cycle;Signal;HPM_P1;HPM_P2
2023/06/22 00:00:50;;;;;;;23.13;18.35;;;19.50;99.90;;;;;;5050333;28;20079;-72
2023/06/22 00:03:18;;;;;;;21.95;16.15;;;19.50;99.90;;;;;;5033735;28;20048;-71
2023/06/22 00:05:44;;;;;;;24.25;17.15;;;19.30;99.90;;;;;;5033702;28;20052;-71
2023/06/22 00:08:10;;;;;;;27.27;17.15;;;20.50;99.90;;;;;;5033410;28;20126;-71
2023/06/22 00:10:36;;;;;;;22.05;18.23;;;19.30;99.90;;;;;;5050112;28;20084;-73
2023/06/22 00:13:01;;;;;;;24.90;18.10;;;19.40;99.90;;;;;;5050332;28;20094;-71
2023/06/22 00:15:27;;;;;;;23.73;17.83;;;19.40;99.90;;;;;;5049989;28;20403;-71
2023/06/22 00:17:53;;;;;;;22.15;17.08;;;20.00;99.90;;;;;;5050281;28;20530;-71
2023/06/22 00:20:18;;;;;;;26.17;20.20;;;19.20;99.90;;;;;;5050514;28;20132;-71
2023/06/22 00:22:44;;;;;;;22.25;18.50;;;19.60;99.90;;;;;;5050540;28;20036;-71
2023/06/22 00:25:10;;;;;;;26.52;18.85;;;19.70;99.90;;;;;;5050722;28;20036;-71
2023/06/22 00:27:36;;;;;;;24.67;19.20;;;19.20;99.90;;;;;;5053902;28;20041;-71
2023/06/22 00:30:02;;;;;;;26.63;20.20;;;19.20;99.90;;;;;;5054455;28;20127;-71
2023/06/22 00:32:28;;;;;;;23.70;18.65;;;18.90;99.90;;;;;;5054494;28;20056;-71
2023/06/22 00:34:54;;;;;;;25.75;20.25;;;19.40;99.90;;;;;;5054318;28;20037;-71
2023/06/22 00:37:19;;;;;;;25.05;19.60;;;19.20;99.90;;;;;;5054021;28;20392;-71
2023/06/22 00:39:45;;;;;;;25.95;19.92;;;20.00;99.90;;;;;;5037346;28;20029;-71
2023/06/22 00:42:10;;;;;;;29.75;20.52;;;18.90;99.90;;;;;;5037426;28;20102;-71
2023/06/22 00:44:36;;;;;;;27.40;20.50;;;19.20;99.90;;;;;;5054200;28;20040;-71
2023/06/22 00:47:03;;;;;;;26.40;21.08;;;19.00;99.90;;;;;;5053401;28;20666;-71
2023/06/22 00:49:29;;;;;;;27.88;21.05;;;19.00;99.90;;;;;;5037170;28;20166;-71
2023/06/22 00:51:56;;;;;;;26.42;20.63;;;19.30;99.90;;;;;;5054365;28;20048;-71
2023/06/22 00:54:24;;;;;;;24.88;20.48;;;20.20;99.90;;;;;;5053782;28;20056;-71
2023/06/22 00:56:59;;;;;;;26.20;21.70;;;19.50;99.90;;;;;;5053350;28;20346;-71
2023/06/22 00:59:26;;;;;;;23.58;20.30;;;19.50;99.90;;;;;;5054816;28;20072;-70
2023/06/22 01:01:52;;;;;;;26.10;20.60;;;19.00;99.90;;;;;;5053724;28;20037;-70
2023/06/22 01:04:18;;;;;;;27.33;22.33;;;19.00;99.90;;;;;;5054943;28;20041;-71
2023/06/22 01:07:08;;;;;;;22.60;19.27;;;19.30;99.90;;;;;;5053149;28;20049;-71
2023/06/22 01:10:02;;;;;;;27.95;21.10;;;18.70;99.90;;;;;;5053780;28;20051;-71
2023/06/22 01:12:32;;;;;;;26.20;20.17;;;18.60;99.90;;;;;;5036851;28;20045;-70
2023/06/22 01:15:21;;;;;;;25.65;21.50;;;18.90;99.90;;;;;;5053468;28;20041;-70
2023/06/22 01:17:49;;;;;;;27.33;20.30;;;19.30;99.90;;;;;;5052324;28;20052;-73
2023/06/22 01:20:16;;;;;;;24.42;20.88;;;18.40;99.90;;;;;;5053035;28;20080;-72
2023/06/22 01:23:25;;;;;;;22.35;19.35;;;18.90;99.90;;;;;;5053412;28;20033;-71
2023/06/22 01:26:02;;;;;;;23.38;19.70;;;18.60;99.90;;;;;;5053206;28;20452;-71
2023/06/22 01:28:45;;;;;;;30.73;22.38;;;18.70;99.90;;;;;;5036048;28;20037;-71
2023/06/22 01:31:14;;;;;;;26.67;20.50;;;18.50;99.90;;;;;;5036603;28;20045;-71
2023/06/22 01:33:42;;;;;;;24.77;19.67;;;18.60;99.90;;;;;;5053185;28;20404;-71
2023/06/22 01:36:09;;;;;;;27.30;21.23;;;18.60;99.90;;;;;;5036045;28;20037;-71
2023/06/22 01:38:36;;;;;;;26.52;21.40;;;18.50;99.90;;;;;;5052498;28;20068;-71
2023/06/22 01:41:03;;;;;;;33.45;23.58;;;19.00;99.90;;;;;;5036551;28;20126;-70
2023/06/22 01:43:29;;;;;;;29.98;22.77;;;18.60;99.90;;;;;;5053042;28;20048;-71
2023/06/22 01:45:56;;;;;;;37.22;24.63;;;18.20;99.90;;;;;;5053008;28;20408;-73
2023/06/22 01:48:23;;;;;;;32.78;25.60;;;18.10;99.90;;;;;;5036483;28;20185;-71
2023/06/22 01:50:48;;;;;;;31.63;25.08;;;18.20;99.90;;;;;;5036597;28;20193;-71
2023/06/22 01:53:14;;;;;;;28.77;24.15;;;18.00;99.90;;;;;;5053184;28;20091;-70
2023/06/22 01:55:40;;;;;;;32.45;23.92;;;18.60;99.90;;;;;;5036253;28;20041;-71
2023/06/22 01:58:05;;;;;;;36.28;27.00;;;18.30;99.90;;;;;;5052423;28;20068;-71
2023/06/22 02:00:38;;;;;;;35.95;26.08;;;18.20;99.90;;;;;;5052782;28;20043;-71
2023/06/22 02:03:18;;;;;;;34.08;26.27;;;18.00;99.90;;;;;;5036577;28;20041;-71
2023/06/22 02:05:49;;;;;;;32.67;26.17;;;17.70;99.90;;;;;;5053057;28;20067;-71
2023/06/22 02:08:27;;;;;;;34.63;28.55;;;17.70;99.90;;;;;;5052101;28;20079;-71
2023/06/22 02:10:55;;;;;;;37.13;27.80;;;17.80;99.90;;;;;;5035785;28;20045;-71
2023/06/22 02:13:21;;;;;;;29.65;26.42;;;17.40;99.90;;;;;;5052364;28;20033;-71
2023/06/22 02:15:48;;;;;;;31.40;27.73;;;17.90;99.90;;;;;;5036006;28;20052;-71
2023/06/22 02:18:14;;;;;;;34.88;27.10;;;18.20;99.90;;;;;;5052057;28;20033;-69
2023/06/22 02:20:40;;;;;;;35.25;29.60;;;18.00;99.90;;;;;;5052404;28;20082;-70
2023/06/22 02:23:06;;;;;;;28.02;25.05;;;17.80;99.90;;;;;;5035851;28;20044;-70
2023/06/22 02:25:33;;;;;;;31.83;27.73;;;17.40;99.90;;;;;;5052587;28;20095;-71
2023/06/22 02:27:58;;;;;;;31.35;27.15;;;17.30;99.90;;;;;;5052133;28;20036;-72
2023/06/22 02:30:24;;;;;;;35.10;27.48;;;17.70;99.90;;;;;;5051857;28;20410;-71
2023/06/22 02:32:57;;;;;;;32.15;28.27;;;17.90;99.90;;;;;;5052084;28;20033;-71
2023/06/22 02:35:22;;;;;;;28.05;24.80;;;17.80;99.90;;;;;;5052261;28;20104;-70
2023/06/22 02:37:51;;;;;;;25.38;22.65;;;17.80;99.90;;;;;;5051805;28;20029;-71
2023/06/22 02:40:17;;;;;;;26.58;23.75;;;17.60;99.90;;;;;;5051731;28;20041;-70
2023/06/22 02:42:43;;;;;;;29.10;24.08;;;17.70;99.90;;;;;;5052320;28;20325;-70
2023/06/22 02:45:09;;;;;;;30.75;24.58;;;17.70;99.90;;;;;;5051691;28;20086;-70
2023/06/22 02:47:34;;;;;;;26.33;23.52;;;17.70;99.90;;;;;;5050892;28;20036;-72
2023/06/22 02:50:01;;;;;;;32.40;23.85;;;18.10;99.90;;;;;;5051305;28;20040;-70
2023/06/22 02:52:26;;;;;;;27.08;23.15;;;17.70;99.90;;;;;;5035066;28;20052;-70
2023/06/22 02:54:52;;;;;;;26.75;23.50;;;;;;;;;;5051783;28;20037;-70
2023/06/22 02:57:18;;;;;;;27.75;24.48;;;18.00;99.90;;;;;;5051003;28;20041;-71
2023/06/22 02:59:43;;;;;;;27.48;23.45;;;17.70;99.90;;;;;;5051553;28;20037;-70
2023/06/22 03:02:09;;;;;;;26.17;22.33;;;17.70;99.90;;;;;;5034846;28;20154;-70
2023/06/22 03:04:35;;;;;;;27.88;21.85;;;17.50;99.90;;;;;;5051298;28;20045;-71
2023/06/22 03:07:01;;;;;;;26.50;21.58;;;18.00;99.90;;;;;;5034227;28;20559;-71
2023/06/22 03:09:28;;;;;;;26.38;21.83;;;17.50;99.90;;;;;;5051107;28;20048;-71
2023/06/22 03:11:54;;;;;;;26.70;22.67;;;17.70;99.90;;;;;;5051297;28;20048;-70
2023/06/22 03:14:20;;;;;;;24.60;21.00;;;17.60;99.90;;;;;;5034478;28;20041;-70
2023/06/22 03:16:46;;;;;;;26.17;22.55;;;17.60;99.90;;;;;;5068891;22;20057;-70
2023/06/22 03:19:12;;;;;;;28.00;22.58;;;18.20;99.90;;;;;;5031284;28;20044;-70
2023/06/22 03:21:38;;;;;;;28.27;23.20;;;17.60;99.90;;;;;;5031475;28;20045;-70
2023/06/22 03:24:05;;;;;;;28.60;24.48;;;17.70;99.90;;;;;;5031408;28;20041;-70
2023/06/22 03:26:30;;;;;;;27.90;23.00;;;17.50;99.90;;;;;;5030545;28;20067;-70
2023/06/22 03:28:56;;;;;;;29.05;23.88;;;17.60;99.90;;;;;;5030834;28;20504;-70
2023/06/22 03:31:22;;;;;;;28.42;21.88;;;17.90;99.90;;;;;;5031046;28;20041;-70
2023/06/22 03:33:49;;;;;;;29.70;22.08;;;17.50;99.90;;;;;;5030989;28;20046;-70
2023/06/22 03:36:22;;;;;;;27.85;22.85;;;17.70;99.90;;;;;;5031000;28;20045;-70
2023/06/22 03:38:48;;;;;;;28.52;23.95;;;17.50;99.90;;;;;;5032179;28;20544;-70
2023/06/22 03:41:14;;;;;;;33.60;26.60;;;17.20;99.90;;;;;;5030810;28;20052;-70
2023/06/22 03:43:40;;;;;;;31.33;23.63;;;17.30;99.90;;;;;;5030848;28;20068;-70
2023/06/22 03:46:05;;;;;;;32.13;23.80;;;17.70;99.90;;;;;;5032177;28;20482;-70
2023/06/22 03:48:31;;;;;;;26.27;23.33;;;17.50;99.90;;;;;;5013700;28;20048;-70
2023/06/22 03:50:58;;;;;;;32.30;24.77;;;17.40;99.90;;;;;;5030720;28;20084;-70
2023/06/22 03:53:24;;;;;;;29.08;22.35;;;17.40;99.90;;;;;;5030472;28;20042;-70
2023/06/22 03:55:51;;;;;;;26.73;22.08;;;17.50;99.90;;;;;;5031334;28;20106;-71
2023/06/22 03:58:18;;;;;;;25.80;23.00;;;17.60;99.90;;;;;;5030708;28;20038;-70
2023/06/22 04:00:49;;;;;;;31.88;25.25;;;17.80;99.90;;;;;;5030748;28;20045;-71
2023/06/22 04:03:15;;;;;;;34.88;26.38;;;17.60;99.90;;;;;;5030970;28;20118;-70
2023/06/22 04:05:41;;;;;;;33.88;25.02;;;17.50;99.90;;;;;;5032027;28;20273;-70
2023/06/22 04:08:07;;;;;;;28.52;24.55;;;17.40;99.90;;;;;;5030000;28;20128;-70
2023/06/22 04:10:33;;;;;;;30.50;24.73;;;17.40;99.90;;;;;;5030165;28;20549;-70
2023/06/22 04:12:59;;;;;;;27.52;24.55;;;17.00;99.90;;;;;;5030607;28;20045;-70
2023/06/22 04:15:25;;;;;;;26.30;23.38;;;;;;;;;;5030538;28;20512;-70
2023/06/22 04:17:51;;;;;;;24.48;21.52;;;17.50;99.90;;;;;;5029713;28;20485;-70
2023/06/22 04:20:16;;;;;;;25.80;21.30;;;17.20;99.90;;;;;;5013664;28;20033;-70
2023/06/22 04:22:42;;;;;;;27.00;21.65;;;17.20;99.90;;;;;;5030272;28;20049;-70
2023/06/22 04:25:08;;;;;;;30.55;23.25;;;18.00;99.90;;;;;;5030108;28;20068;-71
2023/06/22 04:27:40;;;;;;;25.58;21.70;;;17.40;99.90;;;;;;5029858;28;20121;-71
2023/06/22 04:30:07;;;;;;;27.08;22.48;;;17.50;99.90;;;;;;5030184;28;20087;-70
2023/06/22 04:32:33;;;;;;;27.52;20.70;;;;;;;;;;5013706;28;20037;-71
2023/06/22 04:35:00;;;;;;;27.13;24.02;;;17.70;99.90;;;;;;5030445;28;20088;-70
2023/06/22 04:37:26;;;;;;;27.85;24.85;;;17.70;99.90;;;;;;5030053;28;20037;-70
2023/06/22 04:39:52;;;;;;;28.42;24.27;;;17.60;99.90;;;;;;5030292;28;20569;-70
2023/06/22 04:42:18;;;;;;;24.23;21.02;;;17.50;99.90;;;;;;5030363;28;20041;-70
2023/06/22 04:44:44;;;;;;;29.70;24.63;;;17.70;99.90;;;;;;5030594;28;20041;-71
2023/06/22 04:47:09;;;;;;;25.33;20.52;;;17.40;99.90;;;;;;5029671;28;20045;-70
2023/06/22 04:49:37;;;;;;;26.77;23.20;;;17.50;99.90;;;;;;5030138;28;20045;-70
2023/06/22 04:52:05;;;;;;;24.35;21.60;;;17.40;99.90;;;;;;5029964;28;20052;-70
2023/06/22 04:54:34;;;;;;;30.00;23.80;;;17.30;99.90;;;;;;5030046;28;20042;-70
2023/06/22 04:57:00;;;;;;;26.20;23.38;;;17.40;99.90;;;;;;5013124;28;20086;-70
2023/06/22 04:59:29;;;;;;;25.67;22.73;;;17.40;99.90;;;;;;5013447;28;20508;-70
2023/06/22 05:01:56;;;;;;;30.10;24.33;;;17.30;99.90;;;;;;5030283;28;20124;-70
2023/06/22 05:04:23;;;;;;;35.13;27.52;;;17.70;99.90;;;;;;5029908;28;20145;-71
2023/06/22 05:06:49;;;;;;;32.20;27.15;;;17.40;99.90;;;;;;5029659;28;20037;-70
2023/06/22 05:09:14;;;;;;;32.13;25.92;;;17.40;99.90;;;;;;5030235;28;20041;-70
2023/06/22 05:11:40;;;;;;;33.47;26.85;;;17.50;99.90;;;;;;5031827;28;20056;-70
2023/06/22 05:14:07;;;;;;;31.83;25.63;;;17.50;99.90;;;;;;5034271;28;20440;-70
2023/06/22 05:16:33;;;;;;;30.48;23.67;;;17.60;99.90;;;;;;5033278;28;20037;-70
2023/06/22 05:18:58;;;;;;;33.25;26.33;;;18.30;99.90;;;;;;5016968;28;20046;-70
2023/06/22 05:21:26;;;;;;;30.30;23.63;;;18.20;99.90;;;;;;5033597;28;20443;-70
2023/06/22 05:23:53;;;;;;;30.25;23.85;;;18.50;99.90;;;;;;5033416;28;20077;-70
2023/06/22 05:26:20;;;;;;;27.52;23.38;;;18.00;99.90;;;;;;5016768;28;20046;-70
2023/06/22 05:28:46;;;;;;;29.63;23.55;;;18.40;99.90;;;;;;5016654;28;20420;-70
2023/06/22 05:31:16;;;;;;;32.35;24.20;;;19.40;99.90;;;;;;5033317;28;20041;-70
2023/06/22 05:33:42;;;;;;;32.55;26.05;;;18.30;99.90;;;;;;5033035;28;20045;-70
2023/06/22 05:36:09;;;;;;;35.75;25.05;;;18.80;99.90;;;;;;5033081;28;20033;-70
2023/06/22 05:38:35;;;;;;;36.05;26.20;;;18.50;99.90;;;;;;5032560;28;20037;-70
2023/06/22 05:41:01;;;;;;;28.15;24.13;;;18.70;99.90;;;;;;5033133;28;20034;-70
2023/06/22 05:43:26;;;;;;;36.22;25.92;;;18.90;99.90;;;;;;5033116;28;20049;-71
2023/06/22 05:45:52;;;;;;;39.22;29.10;;;18.70;99.90;;;;;;5032973;28;20182;-70
2023/06/22 05:48:18;;;;;;;41.45;30.60;;;18.50;99.90;;;;;;5032356;28;20045;-71
2023/06/22 05:50:43;;;;;;;35.88;28.63;;;18.70;99.90;;;;;;5016323;28;20132;-71
2023/06/22 05:53:09;;;;;;;37.25;29.85;;;18.50;99.90;;;;;;5032969;28;20046;-70
2023/06/22 05:55:35;;;;;;;37.83;29.10;;;18.70;99.90;;;;;;5033126;28;20037;-71
2023/06/22 05:58:00;;;;;;;37.70;28.65;;;19.10;99.90;;;;;;5032509;28;20033;-70
2023/06/22 06:00:26;;;;;;;42.08;30.02;;;19.20;99.90;;;;;;5032572;28;20120;-70
2023/06/22 06:02:51;;;;;;;41.35;31.55;;;18.90;99.90;;;;;;5032591;28;20095;-71
2023/06/22 06:05:18;;;;;;;41.22;32.40;;;19.10;99.90;;;;;;5032866;28;20064;-70
2023/06/22 06:07:45;;;;;;;38.40;31.30;;;19.20;99.90;;;;;;5032452;28;20226;-70
2023/06/22 06:10:11;;;;;;;42.20;33.10;;;19.20;99.90;;;;;;5032671;28;20243;-71
2023/06/22 06:12:36;;;;;;;38.25;29.25;;;19.00;99.90;;;;;;5032568;28;20116;-70
2023/06/22 06:15:03;;;;;;;37.38;27.23;;;19.40;99.90;;;;;;5032391;28;20049;-71
2023/06/22 06:17:28;;;;;;;35.50;28.30;;;19.50;99.90;;;;;;5031984;28;20116;-70
2023/06/22 06:19:54;;;;;;;35.25;28.63;;;19.50;99.90;;;;;;5032106;28;20116;-71
2023/06/22 06:22:20;;;;;;;31.55;25.77;;;19.80;99.90;;;;;;5033315;28;20037;-71
2023/06/22 06:24:48;;;;;;;34.08;26.70;;;19.60;99.90;;;;;;5032859;28;20091;-71
2023/06/22 06:27:14;;;;;;;37.13;28.60;;;19.50;99.90;;;;;;5031970;28;20401;-71
2023/06/22 06:29:39;;;;;;;43.45;34.33;;;20.10;99.90;;;;;;5031974;28;20041;-71
2023/06/22 06:32:06;;;;;;;39.63;30.85;;;19.80;99.90;;;;;;5032380;28;20096;-71
2023/06/22 06:34:31;;;;;;;33.50;28.65;;;19.60;99.90;;;;;;5031994;28;20046;-71
2023/06/22 06:36:57;;;;;;;35.80;28.58;;;20.30;99.90;;;;;;5031568;28;20137;-71
2023/06/22 06:39:23;;;;;;;32.85;26.67;;;20.10;99.90;;;;;;5031928;28;20041;-70
2023/06/22 06:41:48;;;;;;;31.90;24.77;;;20.40;99.90;;;;;;5015966;28;20077;-70
2023/06/22 06:44:14;;;;;;;31.40;24.60;;;20.00;99.90;;;;;;5032649;28;20128;-71
2023/06/22 06:46:41;;;;;;;36.60;27.00;;;20.20;99.90;;;;;;5032534;28;20494;-71
2023/06/22 06:49:07;;;;;;;31.38;26.95;;;20.80;99.90;;;;;;5032026;28;20045;-71
2023/06/22 06:51:33;;;;;;;33.08;28.10;;;20.40;99.90;;;;;;5031527;28;20044;-71
2023/06/22 06:53:58;;;;;;;32.67;25.60;;;20.40;99.90;;;;;;5032221;28;20523;-71
2023/06/22 06:56:24;;;;;;;31.45;26.58;;;20.20;99.90;;;;;;5031396;28;20034;-71
2023/06/22 06:58:50;;;;;;;32.28;25.52;;;20.30;99.90;;;;;;5015082;28;20030;-70
2023/06/22 07:01:16;;;;;;;34.67;25.42;;;20.60;99.90;;;;;;5031755;28;20394;-71
2023/06/22 07:03:42;;;;;;;32.67;24.48;;;20.50;99.90;;;;;;5031701;28;20086;-71
2023/06/22 07:06:09;;;;;;;32.50;25.30;;;20.30;99.90;;;;;;5031399;28;20072;-70
2023/06/22 07:08:36;;;;;;;32.05;23.95;;;20.30;99.90;;;;;;5030709;28;20048;-70
2023/06/22 07:11:02;;;;;;;29.85;24.48;;;20.40;99.90;;;;;;5031692;28;20052;-71
2023/06/22 07:13:28;;;;;;;34.00;25.52;;;20.80;99.90;;;;;;5031472;28;20517;-70
2023/06/22 07:15:54;;;;;;;34.20;24.58;;;21.00;99.90;;;;;;5031446;28;20405;-71
2023/06/22 07:18:19;;;;;;;28.65;23.75;;;20.70;99.90;;;;;;5029860;28;20038;-70
2023/06/22 07:20:45;;;;;;;31.67;23.55;;;20.70;99.90;;;;;;5030282;28;20037;-71
2023/06/22 07:23:11;;;;;;;33.63;24.35;;;20.90;99.90;;;;;;5030677;28;20409;-70
2023/06/22 07:25:36;;;;;;;33.60;25.20;;;21.00;99.90;;;;;;5030611;28;20041;-71
2023/06/22 07:28:06;;;;;;;27.92;24.25;;;20.90;99.90;;;;;;5031085;28;20046;-71
2023/06/22 07:30:33;;;;;;;28.15;23.45;;;20.80;99.90;;;;;;5029912;28;20045;-71
2023/06/22 07:33:02;;;;;;;29.55;22.15;;;21.10;99.90;;;;;;5030110;28;20045;-71
2023/06/22 07:35:29;;;;;;;30.67;23.85;;;21.20;99.90;;;;;;5013548;28;20038;-71
2023/06/22 07:37:54;;;;;;;29.17;21.27;;;21.30;99.90;;;;;;5029678;28;20042;-71
2023/06/22 07:40:20;;;;;;;27.42;21.75;;;21.40;99.90;;;;;;5029946;28;20033;-71
2023/06/22 07:42:48;;;;;;;23.77;19.65;;;21.40;99.90;;;;;;5030346;28;20044;-71
2023/06/22 07:45:14;;;;;;;23.67;19.00;;;21.90;99.90;;;;;;5029978;28;20119;-71
2023/06/22 07:47:40;;;;;;;25.33;19.58;;;21.80;99.90;;;;;;5029451;28;20497;-71
2023/06/22 07:50:06;;;;;;;24.05;19.33;;;21.90;99.90;;;;;;5029745;28;20045;-71
2023/06/22 07:52:32;;;;;;;23.73;18.27;;;22.10;99.90;;;;;;5029883;28;20041;-71
2023/06/22 07:54:58;;;;;;;25.13;20.85;;;22.90;99.90;;;;;;5029858;28;20120;-71
2023/06/22 07:57:31;;;;;;;31.23;21.05;;;22.30;99.90;;;;;;5029326;28;20121;-71
2023/06/22 07:59:58;;;;;;;28.25;20.35;;;22.20;99.90;;;;;;5013182;28;20477;-71
2023/06/22 08:02:24;;;;;;;28.17;21.50;;;21.90;99.90;;;;;;5013643;28;20045;-71
2023/06/22 08:04:49;;;;;;;25.15;19.52;;;22.40;99.90;;;;;;5030020;28;20048;-71
2023/06/22 08:07:15;;;;;;;20.70;17.33;;;23.00;99.90;;;;;;5029223;28;20033;-71
2023/06/22 08:09:47;;;;;;;23.38;18.77;;;22.10;99.90;;;;;;5029540;28;20037;-71
2023/06/22 08:12:13;;;;;;;22.58;18.33;;;22.20;99.90;;;;;;5029676;28;20053;-70
2023/06/22 08:14:39;;;;;;;23.42;17.77;;;22.10;99.90;;;;;;5029630;28;20429;-71
2023/06/22 08:17:05;;;;;;;24.02;18.58;;;22.50;99.90;;;;;;4991196;28;1097814;-71
2023/06/22 08:19:31;;;;;;;22.80;17.42;;;22.60;99.90;;;;;;5030334;28;20107;-71
2023/06/22 08:21:57;;;;;;;22.20;17.75;;;22.80;99.90;;;;;;5030623;28;20037;-71
2023/06/22 08:24:23;;;;;;;20.45;15.40;;;23.00;99.90;;;;;;5030526;28;20045;-71
2023/06/22 08:26:51;;;;;;;21.05;14.90;;;23.00;99.90;;;;;;5029692;28;20043;-71
2023/06/22 08:29:17;;;;;;;20.58;14.93;;;23.10;99.90;;;;;;5030033;28;20049;-71
2023/06/22 08:31:43;;;;;;;20.38;16.60;;;23.30;99.90;;;;;;5030187;28;20052;-71
2023/06/22 08:34:08;;;;;;;24.02;15.98;;;23.30;99.90;;;;;;5013686;28;20072;-71
2023/06/22 08:36:41;;;;;;;21.33;15.70;;;23.70;99.90;;;;;;5029959;28;20045;-71
2023/06/22 08:39:07;;;;;;;20.58;15.23;;;23.60;99.90;;;;;;5029908;28;20041;-71
2023/06/22 08:41:32;;;;;;;18.30;13.48;;;23.60;99.90;;;;;;5030120;28;20404;-71
2023/06/22 08:43:58;;;;;;;20.40;11.82;;;23.60;99.90;;;;;;5030491;28;20239;-71
2023/06/22 08:46:29;;;;;;;17.48;12.30;;;23.70;99.90;;;;;;5030599;28;20489;-71
2023/06/22 08:48:57;;;;;;;17.15;11.20;;;24.00;99.90;;;;;;5035456;28;20117;-72
2023/06/22 08:51:22;;;;;;;18.10;9.60;;;24.10;99.90;;;;;;5034706;28;20046;-71
2023/06/22 08:53:48;;;;;;;16.63;11.23;;;24.20;99.90;;;;;;5017357;28;20047;-71
2023/06/22 08:56:14;;;;;;;21.92;13.32;;;24.20;99.90;;;;;;5034037;28;20562;-71
2023/06/22 08:58:39;;;;;;;15.98;11.52;;;24.00;99.90;;;;;;5016866;28;20584;-71
2023/06/22 09:01:05;;;;;;;16.45;13.48;;;24.20;99.90;;;;;;5035446;28;20121;-71
2023/06/22 09:03:32;;;;;;;15.57;13.80;;;24.20;99.90;;;;;;5035890;28;20038;-72
2023/06/22 09:05:58;;;;;;;16.45;12.00;;;23.60;99.90;;;;;;5034463;28;20053;-71
2023/06/22 09:08:24;;;;;;;14.02;10.50;;;24.00;99.90;;;;;;5033149;28;20094;-71
2023/06/22 09:10:49;;;;;;;14.98;12.20;;;24.40;99.90;;;;;;5033892;28;20132;-72
2023/06/22 09:13:15;;;;;;;14.18;10.32;;;24.30;99.90;;;;;;5033589;28;20045;-71
2023/06/22 09:15:41;;;;;;;13.65;10.90;;;24.40;99.90;;;;;;5017114;28;20091;-71
2023/06/22 09:18:09;;;;;;;17.83;12.60;;;24.50;99.90;;;;;;5095219;22;20036;-72
2023/06/22 09:20:35;;;;;;;16.45;11.55;;;24.30;99.90;;;;;;5093801;28;20473;-73
2023/06/22 09:23:01;;;;;;;13.73;10.45;;;24.60;99.90;;;;;;5093718;28;20131;-72
2023/06/22 09:25:26;;;;;;;12.88;10.35;;;24.50;99.90;;;;;;5093651;28;20411;-74
2023/06/22 09:27:52;;;;;;;12.75;10.20;;;24.70;99.90;;;;;;5094411;28;20419;-72
2023/06/22 09:30:19;;;;;;;14.50;9.50;;;24.50;99.90;;;;;;5094555;28;20068;-72
2023/06/22 09:32:44;;;;;;;14.27;9.82;;;24.60;99.90;;;;;;5094758;28;20043;-72
2023/06/22 09:35:12;;;;;;;15.00;10.88;;;25.00;99.90;;;;;;5076607;28;20040;-72
2023/06/22 09:37:38;;;;;;;12.35;9.10;;;25.10;99.90;;;;;;5093067;28;20036;-72
2023/06/22 09:40:08;;;;;;;14.77;11.30;;;25.20;99.90;;;;;;5093135;28;20032;-72
2023/06/22 09:42:34;;;;;;;15.55;11.52;;;24.90;99.90;;;;;;5093910;28;20083;-72
2023/06/22 09:45:01;;;;;;;14.73;10.57;;;24.80;99.90;;;;;;5093408;28;20048;-72
2023/06/22 09:47:27;;;;;;;13.60;9.10;;;24.90;99.90;;;;;;5092992;28;20055;-73
2023/06/22 09:49:55;;;;;;;13.32;11.23;;;25.20;99.90;;;;;;5093259;28;20052;-72
2023/06/22 09:52:21;;;;;;;13.65;9.70;;;25.00;99.90;;;;;;5093452;28;20040;-72
2023/06/22 09:54:46;;;;;;;11.98;9.85;;;25.30;99.90;;;;;;5076179;28;20514;-72
2023/06/22 09:57:12;;;;;;;14.27;10.32;;;25.50;99.90;;;;;;5092382;28;20059;-73
2023/06/22 09:59:39;;;;;;;12.02;8.77;;;25.10;99.90;;;;;;5092898;28;20416;-72
2023/06/22 10:02:06;;;;;;;13.38;11.00;;;24.90;99.90;;;;;;5093197;28;20078;-72
2023/06/22 10:04:32;;;;;;;13.43;11.20;;;25.40;99.90;;;;;;5092784;28;20113;-72
2023/06/22 10:06:58;;;;;;;11.15;8.63;;;25.00;99.90;;;;;;5092608;28;20048;-72
2023/06/22 10:09:24;;;;;;;13.40;10.02;;;25.20;99.90;;;;;;5092846;28;20134;-72
2023/06/22 10:11:49;;;;;;;12.70;9.50;;;25.30;99.90;;;;;;5092968;28;20050;-72
2023/06/22 10:14:16;;;;;;;10.70;8.70;;;24.80;99.90;;;;;;5092482;28;20090;-73
2023/06/22 10:16:41;;;;;;;11.63;9.52;;;25.30;99.90;;;;;;5093700;28;20506;-73
2023/06/22 10:19:07;;;;;;;11.02;8.48;;;25.60;99.90;;;;;;5095763;28;20047;-73
2023/06/22 10:21:34;;;;;;;13.27;9.60;;;25.80;99.90;;;;;;5096071;28;20058;-73
2023/06/22 10:24:05;;;;;;;13.70;8.50;;;25.80;99.90;;;;;;5095675;28;20086;-73
2023/06/22 10:26:34;;;;;;;10.82;8.55;;;25.90;99.90;;;;;;5095476;28;20043;-72
2023/06/22 10:29:00;;;;;;;10.35;7.80;;;25.60;99.90;;;;;;5095579;28;20035;-71
2023/06/22 10:31:27;;;;;;;10.57;7.80;;;25.80;99.90;;;;;;5095992;28;20212;-71
2023/06/22 10:33:53;;;;;;;11.32;8.38;;;26.00;99.90;;;;;;5113798;28;20050;-71
2023/06/22 10:36:19;;;;;;;10.20;7.90;;;25.80;99.90;;;;;;5095888;28;20525;-71
2023/06/22 10:38:45;;;;;;;10.27;7.00;;;25.90;99.90;;;;;;5094871;28;20059;-72
2023/06/22 10:41:11;;;;;;;11.88;7.97;;;26.10;99.90;;;;;;5114158;28;20040;-72
2023/06/22 10:43:36;;;;;;;8.25;6.55;;;25.80;99.90;;;;;;5095760;28;20031;-72
2023/06/22 10:46:02;;;;;;;8.52;6.88;;;26.40;99.90;;;;;;5095604;28;20617;-72
2023/06/22 10:48:27;;;;;;;11.57;6.85;;;26.50;99.90;;;;;;5094881;28;20040;-72
2023/06/22 10:50:54;;;;;;;8.57;6.57;;;26.60;99.90;;;;;;5095300;28;20434;-72
2023/06/22 10:53:20;;;;;;;7.75;6.68;;;26.50;99.90;;;;;;5078576;28;20089;-71
2023/06/22 10:55:46;;;;;;;6.45;5.40;;;26.20;99.90;;;;;;5095209;28;20047;-72
2023/06/22 10:58:11;;;;;;;7.28;4.93;;;26.00;99.90;;;;;;5094607;28;20046;-72
2023/06/22 11:00:37;;;;;;;7.53;5.97;;;26.10;99.90;;;;;;5078274;28;20084;-72
2023/06/22 11:03:02;;;;;;;5.57;4.97;;;26.20;99.90;;;;;;5095239;28;20078;-72
2023/06/22 11:05:28;;;;;;;8.52;6.47;;;26.50;99.90;;;;;;5078528;28;20051;-71
2023/06/22 11:07:54;;;;;;;8.50;6.38;;;26.50;99.90;;;;;;5094781;28;20046;-71
2023/06/22 11:10:19;;;;;;;5.35;4.47;;;26.20;99.90;;;;;;5094316;28;20071;-72
2023/06/22 11:12:45;;;;;;;7.80;5.50;;;26.50;99.90;;;;;;5095057;28;20272;-72
2023/06/22 11:15:11;;;;;;;8.07;4.93;;;26.10;99.90;;;;;;5095888;28;20069;-72
2023/06/22 11:17:36;;;;;;;7.30;5.70;;;26.50;99.90;;;;;;5114311;28;20042;-72
2023/06/22 11:20:09;;;;;;;7.28;4.35;;;25.60;99.90;;;;;;5096294;28;20042;-72
2023/06/22 11:22:35;;;;;;;5.63;4.78;;;26.20;99.90;;;;;;5095760;28;20050;-71
2023/06/22 11:25:01;;;;;;;6.03;4.45;;;26.20;99.90;;;;;;5077768;28;20040;-72
2023/06/22 11:27:26;;;;;;;6.80;4.38;;;26.60;99.90;;;;;;5077414;28;20120;-74
2023/06/22 11:29:52;;;;;;;8.52;5.30;;;26.50;99.90;;;;;;5112574;28;20518;-71
2023/06/22 11:32:19;;;;;;;7.10;4.65;;;26.60;99.90;;;;;;5094539;28;20079;-71
2023/06/22 11:34:44;;;;;;;10.18;6.63;;;26.40;99.90;;;;;;5077712;28;20039;-72
2023/06/22 11:37:10;;;;;;;7.57;5.50;;;26.30;99.90;;;;;;5112382;28;20406;-71
2023/06/22 11:39:35;;;;;;;7.82;5.13;;;26.20;99.90;;;;;;5094355;28;20032;-71
2023/06/22 11:42:01;;;;;;;8.35;6.32;;;26.10;99.90;;;;;;5094685;28;20120;-72
2023/06/22 11:44:26;;;;;;;8.55;4.57;;;26.30;99.90;;;;;;5077609;28;20116;-72
2023/06/22 11:46:52;;;;;;;7.32;4.20;;;26.30;99.90;;;;;;5093796;28;20127;-71
2023/06/22 11:49:18;;;;;;;7.75;4.38;;;26.40;99.90;;;;;;5094157;28;20043;-71
2023/06/22 11:51:43;;;;;;;10.85;7.32;;;26.40;99.90;;;;;;5077222;28;20070;-72
2023/06/22 11:54:09;;;;;;;7.75;6.28;;;26.10;99.90;;;;;;5077303;28;20311;-71
2023/06/22 11:56:34;;;;;;;6.07;4.85;;;26.00;99.90;;;;;;5077071;28;20118;-72
2023/06/22 11:59:00;;;;;;;7.10;4.55;;;26.10;99.90;;;;;;5093977;28;20031;-72
2023/06/22 12:01:26;;;;;;;5.60;4.78;;;26.10;99.90;;;;;;5094431;28;20032;-72
2023/06/22 12:03:51;;;;;;;7.10;5.28;;;26.20;99.90;;;;;;5094451;28;20046;-71
2023/06/22 12:06:17;;;;;;;5.95;4.68;;;26.20;99.90;;;;;;5094463;28;20039;-71
2023/06/22 12:08:43;;;;;;;9.32;5.82;;;26.30;99.90;;;;;;5076928;28;20043;-71
2023/06/22 12:11:08;;;;;;;6.93;5.63;;;26.20;99.90;;;;;;5077290;28;20042;-72
2023/06/22 12:13:34;;;;;;;8.15;5.70;;;26.50;99.90;;;;;;5077152;28;20195;-71
2023/06/22 12:15:59;;;;;;;5.40;4.43;;;26.40;99.90;;;;;;5094003;28;20035;-71
2023/06/22 12:18:25;;;;;;;6.50;5.28;;;26.40;99.90;;;;;;5076560;28;20433;-71
2023/06/22 12:20:51;;;;;;;6.40;5.15;;;26.30;99.90;;;;;;5092961;28;20035;-72
2023/06/22 12:23:16;;;;;;;6.97;5.20;;;26.40;99.90;;;;;;5093871;28;20047;-72
2023/06/22 12:25:42;;;;;;;8.43;5.55;;;26.70;99.90;;;;;;5077111;28;20040;-71
2023/06/22 12:28:08;;;;;;;7.85;6.75;;;26.10;99.90;;;;;;5093239;28;20416;-72